sensor_id;sensor_type;location;lat;lon;timestamp;P1;durP1;ratioP1;P2;durP2;ratioP2
71042;SDS011;58696;52.134;5.500;2023-09-18T00:00:58;17.75;;;10.73;;
71042;SDS011;58696;52.134;5.500;2023-09-18T00:03:28;12.93;;;10.48;;
71042;SDS011;58696;52.134;5.500;2023-09-18T00:05:59;12.27;;;9.77;;
71042;SDS011;58696;52.134;5.500;2023-09-18T00:08:26;10.55;;;9.48;;
71042;SDS011;58696;52.134;5.500;2023-09-18T00:10:55;14.43;;;10.07;;
71042;SDS011;58696;52.134;5.500;2023-09-18T00:13:24;16.47;;;10.77;;
71042;SDS011;58696;52.134;5.500;2023-09-18T00:15:54;16.60;;;10.27;;
71042;SDS011;58696;52.134;5.500;2023-09-18T00:18:21;15.55;;;10.50;;
71042;SDS011;58696;52.134;5.500;2023-09-18T00:20:51;13.27;;;10.40;;
71042;SDS011;58696;52.134;5.500;2023-09-18T00:23:18;13.25;;;9.85;;
71042;SDS011;58696;52.134;5.500;2023-09-18T00:25:45;13.37;;;9.90;;
71042;SDS011;58696;52.134;5.500;2023-09-18T00:28:12;11.80;;;10.18;;
71042;SDS011;58696;52.134;5.500;2023-09-18T00:30:42;15.57;;;10.52;;
71042;SDS011;58696;52.134;5.500;2023-09-18T00:33:14;13.73;;;10.43;;
71042;SDS011;58696;52.134;5.500;2023-09-18T00:35:47;15.77;;;11.20;;
71042;SDS011;58696;52.134;5.500;2023-09-18T00:38:17;11.50;;;10.30;;
71042;SDS011;58696;52.134;5.500;2023-09-18T00:40:44;12.85;;;10.60;;
71042;SDS011;58696;52.134;5.500;2023-09-18T00:43:10;13.77;;;10.82;;
71042;SDS011;58696;52.134;5.500;2023-09-18T00:45:41;10.95;;;9.68;;
71042;SDS011;58696;52.134;5.500;2023-09-18T00:48:10;13.95;;;10.48;;
71042;SDS011;58696;52.134;5.500;2023-09-18T00:50:41;17.23;;;10.73;;
71042;SDS011;58696;52.134;5.500;2023-09-18T00:53:14;13.25;;;10.98;;
71042;SDS011;58696;52.134;5.500;2023-09-18T00:55:43;11.40;;;9.70;;
71042;SDS011;58696;52.134;5.500;2023-09-18T00:58:16;14.23;;;10.27;;
71042;SDS011;58696;52.134;5.500;2023-09-18T01:00:45;11.40;;;10.20;;
71042;SDS011;58696;52.134;5.500;2023-09-18T01:03:18;14.20;;;10.02;;
71042;SDS011;58696;52.134;5.500;2023-09-18T01:05:50;14.32;;;9.90;;
71042;SDS011;58696;52.134;5.500;2023-09-18T01:08:25;13.73;;;10.23;;
71042;SDS011;58696;52.134;5.500;2023-09-18T01:13:38;12.80;;;9.45;;
71042;SDS011;58696;52.134;5.500;2023-09-18T01:16:20;12.85;;;9.70;;
71042;SDS011;58696;52.134;5.500;2023-09-18T01:18:53;14.20;;;10.38;;
71042;SDS011;58696;52.134;5.500;2023-09-18T01:21:23;14.00;;;10.27;;
71042;SDS011;58696;52.134;5.500;2023-09-18T01:23:52;15.35;;;9.82;;
71042;SDS011;58696;52.134;5.500;2023-09-18T01:26:19;12.85;;;10.50;;
71042;SDS011;58696;52.134;5.500;2023-09-18T01:28:46;12.77;;;10.27;;
71042;SDS011;58696;52.134;5.500;2023-09-18T01:31:13;14.57;;;10.27;;
71042;SDS011;58696;52.134;5.500;2023-09-18T01:33:40;12.35;;;9.95;;
71042;SDS011;58696;52.134;5.500;2023-09-18T01:36:13;15.02;;;10.52;;
71042;SDS011;58696;52.134;5.500;2023-09-18T01:38:45;11.25;;;8.95;;
71042;SDS011;58696;52.134;5.500;2023-09-18T01:41:13;12.52;;;9.88;;
71042;SDS011;58696;52.134;5.500;2023-09-18T01:43:40;14.30;;;10.30;;
71042;SDS011;58696;52.134;5.500;2023-09-18T01:46:08;11.10;;;9.82;;
71042;SDS011;58696;52.134;5.500;2023-09-18T01:48:35;13.35;;;10.85;;
71042;SDS011;58696;52.134;5.500;2023-09-18T01:51:04;13.18;;;10.18;;
71042;SDS011;58696;52.134;5.500;2023-09-18T01:53:33;17.73;;;9.82;;
71042;SDS011;58696;52.134;5.500;2023-09-18T01:56:02;11.05;;;9.05;;
71042;SDS011;58696;52.134;5.500;2023-09-18T01:58:34;12.60;;;9.07;;
71042;SDS011;58696;52.134;5.500;2023-09-18T02:01:06;10.88;;;8.88;;
71042;SDS011;58696;52.134;5.500;2023-09-18T02:03:34;14.02;;;9.57;;
71042;SDS011;58696;52.134;5.500;2023-09-18T02:06:30;9.90;;;8.85;;
71042;SDS011;58696;52.134;5.500;2023-09-18T02:08:58;9.77;;;8.73;;
71042;SDS011;58696;52.134;5.500;2023-09-18T02:11:30;12.30;;;9.40;;
71042;SDS011;58696;52.134;5.500;2023-09-18T02:13:58;16.88;;;9.25;;
71042;SDS011;58696;52.134;5.500;2023-09-18T02:16:25;13.25;;;9.20;;
71042;SDS011;58696;52.134;5.500;2023-09-18T02:18:58;12.38;;;8.90;;
71042;SDS011;58696;52.134;5.500;2023-09-18T02:21:27;10.93;;;9.20;;
71042;SDS011;58696;52.134;5.500;2023-09-18T02:23:54;15.13;;;10.30;;
71042;SDS011;58696;52.134;5.500;2023-09-18T02:26:26;12.82;;;9.95;;
71042;SDS011;58696;52.134;5.500;2023-09-18T02:28:57;14.02;;;10.02;;
71042;SDS011;58696;52.134;5.500;2023-09-18T02:31:31;13.95;;;9.88;;
71042;SDS011;58696;52.134;5.500;2023-09-18T02:34:00;14.65;;;9.82;;
71042;SDS011;58696;52.134;5.500;2023-09-18T02:36:35;15.25;;;10.00;;
71042;SDS011;58696;52.134;5.500;2023-09-18T02:39:05;14.77;;;10.13;;
71042;SDS011;58696;52.134;5.500;2023-09-18T02:41:34;15.95;;;9.73;;
71042;SDS011;58696;52.134;5.500;2023-09-18T02:44:03;12.15;;;9.48;;
71042;SDS011;58696;52.134;5.500;2023-09-18T02:46:32;12.93;;;9.40;;
71042;SDS011;58696;52.134;5.500;2023-09-18T02:48:59;14.73;;;10.50;;
71042;SDS011;58696;52.134;5.500;2023-09-18T02:51:26;13.83;;;10.63;;
71042;SDS011;58696;52.134;5.500;2023-09-18T02:53:57;17.23;;;10.23;;
71042;SDS011;58696;52.134;5.500;2023-09-18T02:56:25;14.15;;;9.95;;
71042;SDS011;58696;52.134;5.500;2023-09-18T02:58:54;12.53;;;10.47;;
71042;SDS011;58696;52.134;5.500;2023-09-18T03:01:24;16.15;;;10.65;;
71042;SDS011;58696;52.134;5.500;2023-09-18T03:03:52;10.48;;;9.43;;
71042;SDS011;58696;52.134;5.500;2023-09-18T03:06:19;12.38;;;10.10;;
71042;SDS011;58696;52.134;5.500;2023-09-18T03:08:50;15.50;;;11.20;;
71042;SDS011;58696;52.134;5.500;2023-09-18T03:11:18;13.45;;;10.18;;
71042;SDS011;58696;52.134;5.500;2023-09-18T03:13:47;18.77;;;10.73;;
71042;SDS011;58696;52.134;5.500;2023-09-18T03:16:15;16.35;;;11.32;;
71042;SDS011;58696;52.134;5.500;2023-09-18T03:18:44;14.98;;;10.27;;
71042;SDS011;58696;52.134;5.500;2023-09-18T03:21:13;16.20;;;11.07;;
71042;SDS011;58696;52.134;5.500;2023-09-18T03:23:46;14.93;;;9.95;;
71042;SDS011;58696;52.134;5.500;2023-09-18T03:26:13;14.32;;;10.73;;
71042;SDS011;58696;52.134;5.500;2023-09-18T03:28:45;11.00;;;9.88;;
71042;SDS011;58696;52.134;5.500;2023-09-18T03:31:11;12.27;;;9.95;;
71042;SDS011;58696;52.134;5.500;2023-09-18T03:33:41;20.08;;;11.52;;
71042;SDS011;58696;52.134;5.500;2023-09-18T03:36:07;16.10;;;10.35;;
71042;SDS011;58696;52.134;5.500;2023-09-18T03:38:37;14.50;;;10.20;;
71042;SDS011;58696;52.134;5.500;2023-09-18T03:41:04;14.18;;;9.80;;
71042;SDS011;58696;52.134;5.500;2023-09-18T03:43:31;11.35;;;9.05;;
71042;SDS011;58696;52.134;5.500;2023-09-18T03:46:07;12.77;;;9.47;;
71042;SDS011;58696;52.134;5.500;2023-09-18T03:48:39;15.25;;;9.93;;
71042;SDS011;58696;52.134;5.500;2023-09-18T03:51:08;16.77;;;10.15;;
71042;SDS011;58696;52.134;5.500;2023-09-18T03:53:38;13.52;;;10.02;;
71042;SDS011;58696;52.134;5.500;2023-09-18T03:56:05;18.00;;;10.20;;
71042;SDS011;58696;52.134;5.500;2023-09-18T03:58:31;18.90;;;10.37;;
71042;SDS011;58696;52.134;5.500;2023-09-18T04:01:04;11.90;;;9.80;;
71042;SDS011;58696;52.134;5.500;2023-09-18T04:03:35;16.38;;;10.45;;
71042;SDS011;58696;52.134;5.500;2023-09-18T04:06:02;16.92;;;10.73;;
71042;SDS011;58696;52.134;5.500;2023-09-18T04:08:29;14.75;;;11.90;;
71042;SDS011;58696;52.134;5.500;2023-09-18T04:11:01;16.45;;;11.65;;
71042;SDS011;58696;52.134;5.500;2023-09-18T04:13:30;20.73;;;12.80;;
71042;SDS011;58696;52.134;5.500;2023-09-18T04:15:57;19.98;;;12.13;;
71042;SDS011;58696;52.134;5.500;2023-09-18T04:18:27;13.65;;;11.10;;
71042;SDS011;58696;52.134;5.500;2023-09-18T04:20:56;19.35;;;12.50;;
71042;SDS011;58696;52.134;5.500;2023-09-18T04:23:23;15.57;;;11.23;;
71042;SDS011;58696;52.134;5.500;2023-09-18T04:25:52;17.38;;;11.52;;
71042;SDS011;58696;52.134;5.500;2023-09-18T04:28:22;15.35;;;10.70;;
71042;SDS011;58696;52.134;5.500;2023-09-18T04:30:52;22.75;;;11.40;;
71042;SDS011;58696;52.134;5.500;2023-09-18T04:33:19;18.90;;;11.23;;
71042;SDS011;58696;52.134;5.500;2023-09-18T04:35:48;18.90;;;10.27;;
71042;SDS011;58696;52.134;5.500;2023-09-18T04:38:17;13.32;;;10.02;;
71042;SDS011;58696;52.134;5.500;2023-09-18T04:40:46;13.13;;;9.75;;
71042;SDS011;58696;52.134;5.500;2023-09-18T04:43:15;14.45;;;9.68;;
71042;SDS011;58696;52.134;5.500;2023-09-18T04:45:45;18.40;;;10.13;;
71042;SDS011;58696;52.134;5.500;2023-09-18T04:50:40;15.23;;;9.20;;
71042;SDS011;58696;52.134;5.500;2023-09-18T04:53:13;13.32;;;9.23;;
71042;SDS011;58696;52.134;5.500;2023-09-18T04:55:47;11.48;;;9.52;;
71042;SDS011;58696;52.134;5.500;2023-09-18T04:58:16;19.00;;;9.80;;
71042;SDS011;58696;52.134;5.500;2023-09-18T05:00:45;13.95;;;9.98;;
71042;SDS011;58696;52.134;5.500;2023-09-18T05:03:12;17.27;;;9.48;;
71042;SDS011;58696;52.134;5.500;2023-09-18T05:05:44;18.15;;;10.73;;
71042;SDS011;58696;52.134;5.500;2023-09-18T05:08:14;16.35;;;9.57;;
71042;SDS011;58696;52.134;5.500;2023-09-18T05:10:43;14.70;;;7.05;;
71042;SDS011;58696;52.134;5.500;2023-09-18T05:13:12;9.50;;;6.90;;
71042;SDS011;58696;52.134;5.500;2023-09-18T05:15:41;3.58;;;3.17;;
71042;SDS011;58696;52.134;5.500;2023-09-18T05:18:13;6.07;;;2.70;;
71042;SDS011;58696;52.134;5.500;2023-09-18T05:20:44;4.15;;;3.35;;
71042;SDS011;58696;52.134;5.500;2023-09-18T05:23:17;12.30;;;2.88;;
71042;SDS011;58696;52.134;5.500;2023-09-18T05:25:44;8.13;;;4.25;;
71042;SDS011;58696;52.134;5.500;2023-09-18T05:30:38;14.23;;;4.47;;
71042;SDS011;58696;52.134;5.500;2023-09-18T05:33:10;7.97;;;4.22;;
71042;SDS011;58696;52.134;5.500;2023-09-18T05:35:40;10.40;;;4.90;;
71042;SDS011;58696;52.134;5.500;2023-09-18T05:38:13;10.15;;;4.90;;
71042;SDS011;58696;52.134;5.500;2023-09-18T05:40:41;6.75;;;5.03;;
71042;SDS011;58696;52.134;5.500;2023-09-18T05:43:07;10.95;;;5.65;;
71042;SDS011;58696;52.134;5.500;2023-09-18T05:45:38;11.13;;;5.50;;
71042;SDS011;58696;52.134;5.500;2023-09-18T05:48:09;8.13;;;5.85;;
71042;SDS011;58696;52.134;5.500;2023-09-18T05:50:38;7.60;;;6.10;;
71042;SDS011;58696;52.134;5.500;2023-09-18T05:53:05;7.20;;;6.43;;
71042;SDS011;58696;52.134;5.500;2023-09-18T05:55:35;8.40;;;6.30;;
71042;SDS011;58696;52.134;5.500;2023-09-18T05:58:02;11.00;;;6.47;;
71042;SDS011;58696;52.134;5.500;2023-09-18T06:00:31;7.60;;;6.60;;
71042;SDS011;58696;52.134;5.500;2023-09-18T06:03:00;10.02;;;6.68;;
71042;SDS011;58696;52.134;5.500;2023-09-18T06:05:32;11.05;;;6.28;;
71042;SDS011;58696;52.134;5.500;2023-09-18T06:08:02;13.85;;;7.03;;
71042;SDS011;58696;52.134;5.500;2023-09-18T06:10:33;9.05;;;6.88;;
71042;SDS011;58696;52.134;5.500;2023-09-18T06:13:00;10.02;;;6.47;;
71042;SDS011;58696;52.134;5.500;2023-09-18T06:15:32;8.48;;;6.35;;
71042;SDS011;58696;52.134;5.500;2023-09-18T06:18:01;9.20;;;5.88;;
71042;SDS011;58696;52.134;5.500;2023-09-18T06:20:29;9.52;;;7.22;;
71042;SDS011;58696;52.134;5.500;2023-09-18T06:22:56;11.67;;;6.57;;
71042;SDS011;58696;52.134;5.500;2023-09-18T06:25:25;12.00;;;7.38;;
71042;SDS011;58696;52.134;5.500;2023-09-18T06:27:54;11.23;;;6.95;;
71042;SDS011;58696;52.134;5.500;2023-09-18T06:30:23;10.52;;;7.13;;
71042;SDS011;58696;52.134;5.500;2023-09-18T06:32:50;14.52;;;8.23;;
71042;SDS011;58696;52.134;5.500;2023-09-18T06:35:16;15.27;;;8.17;;
71042;SDS011;58696;52.134;5.500;2023-09-18T06:37:46;14.73;;;7.65;;
71042;SDS011;58696;52.134;5.500;2023-09-18T06:40:14;10.55;;;7.03;;
71042;SDS011;58696;52.134;5.500;2023-09-18T06:42:40;11.05;;;7.20;;
71042;SDS011;58696;52.134;5.500;2023-09-18T06:45:10;11.32;;;8.02;;
71042;SDS011;58696;52.134;5.500;2023-09-18T06:47:44;11.80;;;7.03;;
71042;SDS011;58696;52.134;5.500;2023-09-18T06:50:13;12.63;;;7.32;;
71042;SDS011;58696;52.134;5.500;2023-09-18T06:52:42;8.55;;;6.65;;
71042;SDS011;58696;52.134;5.500;2023-09-18T06:55:10;8.50;;;7.13;;
71042;SDS011;58696;52.134;5.500;2023-09-18T06:57:39;14.57;;;7.63;;
71042;SDS011;58696;52.134;5.500;2023-09-18T07:00:10;10.68;;;6.88;;
71042;SDS011;58696;52.134;5.500;2023-09-18T07:02:37;13.50;;;7.05;;
71042;SDS011;58696;52.134;5.500;2023-09-18T07:05:07;14.02;;;7.00;;
71042;SDS011;58696;52.134;5.500;2023-09-18T07:07:36;9.55;;;6.75;;
71042;SDS011;58696;52.134;5.500;2023-09-18T07:10:05;9.57;;;6.35;;
71042;SDS011;58696;52.134;5.500;2023-09-18T07:12:32;9.30;;;6.72;;
71042;SDS011;58696;52.134;5.500;2023-09-18T07:15:02;16.63;;;7.05;;
71042;SDS011;58696;52.134;5.500;2023-09-18T07:17:30;12.32;;;6.45;;
71042;SDS011;58696;52.134;5.500;2023-09-18T07:20:02;12.43;;;6.35;;
71042;SDS011;58696;52.134;5.500;2023-09-18T07:22:37;10.15;;;6.35;;
71042;SDS011;58696;52.134;5.500;2023-09-18T07:25:14;11.60;;;6.60;;
71042;SDS011;58696;52.134;5.500;2023-09-18T07:27:44;11.40;;;6.97;;
71042;SDS011;58696;52.134;5.500;2023-09-18T07:30:11;7.50;;;6.72;;
71042;SDS011;58696;52.134;5.500;2023-09-18T07:32:42;13.00;;;6.85;;
71042;SDS011;58696;52.134;5.500;2023-09-18T07:35:10;8.75;;;6.43;;
71042;SDS011;58696;52.134;5.500;2023-09-18T07:37:39;10.85;;;5.78;;
71042;SDS011;58696;52.134;5.500;2023-09-18T07:40:07;10.50;;;5.95;;
71042;SDS011;58696;52.134;5.500;2023-09-18T07:45:03;9.52;;;5.72;;
71042;SDS011;58696;52.134;5.500;2023-09-18T07:47:30;6.88;;;5.43;;
71042;SDS011;58696;52.134;5.500;2023-09-18T07:49:57;11.68;;;6.60;;
71042;SDS011;58696;52.134;5.500;2023-09-18T07:52:27;7.57;;;5.88;;
71042;SDS011;58696;52.134;5.500;2023-09-18T07:55:00;9.85;;;6.43;;
71042;SDS011;58696;52.134;5.500;2023-09-18T07:57:29;13.35;;;5.78;;
71042;SDS011;58696;52.134;5.500;2023-09-18T08:00:00;6.85;;;4.78;;
71042;SDS011;58696;52.134;5.500;2023-09-18T08:02:39;9.13;;;5.70;;
71042;SDS011;58696;52.134;5.500;2023-09-18T08:05:08;8.15;;;5.13;;
71042;SDS011;58696;52.134;5.500;2023-09-18T08:07:37;12.95;;;5.00;;
71042;SDS011;58696;52.134;5.500;2023-09-18T08:10:05;5.68;;;4.45;;
71042;SDS011;58696;52.134;5.500;2023-09-18T08:12:36;10.85;;;4.60;;
71042;SDS011;58696;52.134;5.500;2023-09-18T08:15:02;6.88;;;4.05;;
71042;SDS011;58696;52.134;5.500;2023-09-18T08:17:31;5.85;;;4.18;;
71042;SDS011;58696;52.134;5.500;2023-09-18T08:19:58;5.88;;;4.18;;
71042;SDS011;58696;52.134;5.500;2023-09-18T08:22:25;6.10;;;4.15;;
71042;SDS011;58696;52.134;5.500;2023-09-18T08:24:52;9.50;;;4.20;;
71042;SDS011;58696;52.134;5.500;2023-09-18T08:27:19;6.95;;;4.43;;
71042;SDS011;58696;52.134;5.500;2023-09-18T08:29:47;6.03;;;4.03;;
71042;SDS011;58696;52.134;5.500;2023-09-18T08:32:13;6.03;;;4.10;;
71042;SDS011;58696;52.134;5.500;2023-09-18T08:34:47;6.55;;;3.92;;
71042;SDS011;58696;52.134;5.500;2023-09-18T08:37:15;8.40;;;4.47;;
71042;SDS011;58696;52.134;5.500;2023-09-18T08:39:42;6.57;;;4.07;;
71042;SDS011;58696;52.134;5.500;2023-09-18T08:42:09;6.47;;;4.10;;
71042;SDS011;58696;52.134;5.500;2023-09-18T08:44:39;5.93;;;3.90;;
71042;SDS011;58696;52.134;5.500;2023-09-18T08:47:07;5.40;;;4.18;;
71042;SDS011;58696;52.134;5.500;2023-09-18T08:49:38;6.10;;;3.90;;
71042;SDS011;58696;52.134;5.500;2023-09-18T08:52:09;4.78;;;3.72;;
71042;SDS011;58696;52.134;5.500;2023-09-18T08:54:42;5.30;;;3.75;;
71042;SDS011;58696;52.134;5.500;2023-09-18T08:57:10;7.90;;;4.32;;
71042;SDS011;58696;52.134;5.500;2023-09-18T08:59:42;5.00;;;3.30;;
71042;SDS011;58696;52.134;5.500;2023-09-18T09:02:14;4.53;;;2.97;;
71042;SDS011;58696;52.134;5.500;2023-09-18T09:04:40;4.75;;;3.63;;
71042;SDS011;58696;52.134;5.500;2023-09-18T09:07:10;4.82;;;3.47;;
71042;SDS011;58696;52.134;5.500;2023-09-18T09:09:36;6.13;;;3.28;;
71042;SDS011;58696;52.134;5.500;2023-09-18T09:12:06;3.92;;;3.10;;
71042;SDS011;58696;52.134;5.500;2023-09-18T09:14:35;3.40;;;2.92;;
71042;SDS011;58696;52.134;5.500;2023-09-18T09:17:02;4.47;;;2.57;;
71042;SDS011;58696;52.134;5.500;2023-09-18T09:19:33;5.93;;;3.10;;
71042;SDS011;58696;52.134;5.500;2023-09-18T09:22:08;3.75;;;2.92;;
71042;SDS011;58696;52.134;5.500;2023-09-18T09:24:36;9.68;;;3.28;;
71042;SDS011;58696;52.134;5.500;2023-09-18T09:27:03;8.05;;;3.35;;
71042;SDS011;58696;52.134;5.500;2023-09-18T09:29:32;7.72;;;3.30;;
71042;SDS011;58696;52.134;5.500;2023-09-18T09:32:12;2.72;;;2.53;;
71042;SDS011;58696;52.134;5.500;2023-09-18T09:34:41;2.60;;;2.40;;
71042;SDS011;58696;52.134;5.500;2023-09-18T09:37:10;4.07;;;2.55;;
71042;SDS011;58696;52.134;5.500;2023-09-18T09:39:49;5.60;;;2.63;;
71042;SDS011;58696;52.134;5.500;2023-09-18T09:42:17;3.75;;;2.58;;
71042;SDS011;58696;52.134;5.500;2023-09-18T09:45:04;3.22;;;2.35;;
71042;SDS011;58696;52.134;5.500;2023-09-18T09:47:40;3.63;;;2.53;;
71042;SDS011;58696;52.134;5.500;2023-09-18T09:50:12;3.83;;;2.20;;
71042;SDS011;58696;52.134;5.500;2023-09-18T09:52:43;3.53;;;2.55;;
71042;SDS011;58696;52.134;5.500;2023-09-18T09:55:17;4.93;;;2.17;;
71042;SDS011;58696;52.134;5.500;2023-09-18T09:57:47;4.93;;;2.75;;
71042;SDS011;58696;52.134;5.500;2023-09-18T10:00:16;4.05;;;2.35;;
71042;SDS011;58696;52.134;5.500;2023-09-18T10:02:54;6.22;;;2.63;;
71042;SDS011;58696;52.134;5.500;2023-09-18T10:05:26;3.38;;;2.03;;
71042;SDS011;58696;52.134;5.500;2023-09-18T10:07:59;2.88;;;2.22;;
71042;SDS011;58696;52.134;5.500;2023-09-18T10:10:29;2.20;;;2.00;;
71042;SDS011;58696;52.134;5.500;2023-09-18T10:13:00;4.35;;;2.63;;
71042;SDS011;58696;52.134;5.500;2023-09-18T10:15:33;4.07;;;2.42;;
71042;SDS011;58696;52.134;5.500;2023-09-18T10:18:05;2.65;;;1.83;;
71042;SDS011;58696;52.134;5.500;2023-09-18T10:20:39;6.68;;;2.80;;
71042;SDS011;58696;52.134;5.500;2023-09-18T10:23:14;4.47;;;2.38;;
71042;SDS011;58696;52.134;5.500;2023-09-18T10:25:50;4.78;;;2.55;;
71042;SDS011;58696;52.134;5.500;2023-09-18T10:28:23;6.35;;;2.70;;
71042;SDS011;58696;52.134;5.500;2023-09-18T10:30:57;4.53;;;2.70;;
71042;SDS011;58696;52.134;5.500;2023-09-18T10:33:27;3.88;;;2.70;;
71042;SDS011;58696;52.134;5.500;2023-09-18T10:35:57;4.40;;;2.67;;
71042;SDS011;58696;52.134;5.500;2023-09-18T10:38:27;5.20;;;3.60;;
71042;SDS011;58696;52.134;5.500;2023-09-18T10:40:57;8.65;;;3.60;;
71042;SDS011;58696;52.134;5.500;2023-09-18T10:43:25;4.65;;;3.88;;
71042;SDS011;58696;52.134;5.500;2023-09-18T10:45:54;3.97;;;3.53;;
71042;SDS011;58696;52.134;5.500;2023-09-18T10:48:23;4.60;;;3.78;;
71042;SDS011;58696;52.134;5.500;2023-09-18T10:50:52;6.65;;;3.67;;
71042;SDS011;58696;52.134;5.500;2023-09-18T10:53:21;4.45;;;3.47;;
71042;SDS011;58696;52.134;5.500;2023-09-18T10:55:56;6.97;;;3.58;;
71042;SDS011;58696;52.134;5.500;2023-09-18T10:58:23;5.15;;;3.53;;
71042;SDS011;58696;52.134;5.500;2023-09-18T11:00:51;8.90;;;4.10;;
71042;SDS011;58696;52.134;5.500;2023-09-18T11:03:23;7.43;;;4.07;;
71042;SDS011;58696;52.134;5.500;2023-09-18T11:06:05;15.73;;;4.25;;
71042;SDS011;58696;52.134;5.500;2023-09-18T11:08:43;5.65;;;4.30;;
71042;SDS011;58696;52.134;5.500;2023-09-18T11:11:17;10.68;;;4.22;;
71042;SDS011;58696;52.134;5.500;2023-09-18T11:13:47;9.15;;;4.55;;
71042;SDS011;58696;52.134;5.500;2023-09-18T11:21:33;8.60;;;4.30;;
71042;SDS011;58696;52.134;5.500;2023-09-18T11:24:06;5.72;;;4.15;;
71042;SDS011;58696;52.134;5.500;2023-09-18T11:26:42;6.65;;;3.75;;
71042;SDS011;58696;52.134;5.500;2023-09-18T11:29:22;10.38;;;4.13;;
71042;SDS011;58696;52.134;5.500;2023-09-18T11:31:53;5.85;;;3.85;;
71042;SDS011;58696;52.134;5.500;2023-09-18T11:34:28;6.45;;;3.70;;
71042;SDS011;58696;52.134;5.500;2023-09-18T11:37:28;7.95;;;3.85;;
71042;SDS011;58696;52.134;5.500;2023-09-18T11:39:56;6.20;;;3.90;;
71042;SDS011;58696;52.134;5.500;2023-09-18T11:42:24;12.95;;;4.57;;
71042;SDS011;58696;52.134;5.500;2023-09-18T11:44:53;9.18;;;4.07;;
71042;SDS011;58696;52.134;5.500;2023-09-18T11:47:23;7.82;;;4.53;;
71042;SDS011;58696;52.134;5.500;2023-09-18T11:49:58;7.07;;;4.07;;
71042;SDS011;58696;52.134;5.500;2023-09-18T11:52:27;9.60;;;4.65;;
71042;SDS011;58696;52.134;5.500;2023-09-18T11:54:58;8.93;;;5.13;;
71042;SDS011;58696;52.134;5.500;2023-09-18T11:59:58;5.90;;;4.32;;
71042;SDS011;58696;52.134;5.500;2023-09-18T12:02:37;11.65;;;5.03;;
71042;SDS011;58696;52.134;5.500;2023-09-18T12:05:11;8.80;;;4.60;;
71042;SDS011;58696;52.134;5.500;2023-09-18T12:07:44;7.07;;;4.38;;
71042;SDS011;58696;52.134;5.500;2023-09-18T12:10:18;6.78;;;4.57;;
71042;SDS011;58696;52.134;5.500;2023-09-18T12:12:49;8.23;;;3.72;;
71042;SDS011;58696;52.134;5.500;2023-09-18T12:15:21;3.53;;;3.08;;
71042;SDS011;58696;52.134;5.500;2023-09-18T12:17:48;5.43;;;3.42;;
71042;SDS011;58696;52.134;5.500;2023-09-18T12:20:16;4.65;;;3.20;;
71042;SDS011;58696;52.134;5.500;2023-09-18T12:22:48;6.50;;;3.17;;
71042;SDS011;58696;52.134;5.500;2023-09-18T12:25:17;5.43;;;3.30;;
71042;SDS011;58696;52.134;5.500;2023-09-18T12:27:46;6.03;;;3.20;;
71042;SDS011;58696;52.134;5.500;2023-09-18T12:30:18;6.95;;;3.75;;
71042;SDS011;58696;52.134;5.500;2023-09-18T12:32:50;5.90;;;3.20;;
71042;SDS011;58696;52.134;5.500;2023-09-18T12:35:19;4.32;;;3.08;;
71042;SDS011;58696;52.134;5.500;2023-09-18T12:37:51;4.88;;;3.15;;
71042;SDS011;58696;52.134;5.500;2023-09-18T12:40:36;4.78;;;3.33;;
71042;SDS011;58696;52.134;5.500;2023-09-18T12:43:02;4.30;;;3.28;;
71042;SDS011;58696;52.134;5.500;2023-09-18T12:45:29;3.47;;;3.17;;
71042;SDS011;58696;52.134;5.500;2023-09-18T12:48:01;5.55;;;2.72;;
71042;SDS011;58696;52.134;5.500;2023-09-18T12:50:32;6.47;;;3.70;;
71042;SDS011;58696;52.134;5.500;2023-09-18T12:53:13;4.13;;;2.83;;
71042;SDS011;58696;52.134;5.500;2023-09-18T12:55:43;4.13;;;3.00;;
71042;SDS011;58696;52.134;5.500;2023-09-18T12:58:10;5.77;;;3.27;;
71042;SDS011;58696;52.134;5.500;2023-09-18T13:00:43;3.00;;;2.80;;
71042;SDS011;58696;52.134;5.500;2023-09-18T13:03:14;4.85;;;3.17;;
71042;SDS011;58696;52.134;5.500;2023-09-18T13:05:41;11.00;;;3.60;;
71042;SDS011;58696;52.134;5.500;2023-09-18T13:08:08;5.75;;;3.25;;
71042;SDS011;58696;52.134;5.500;2023-09-18T13:10:41;8.00;;;2.90;;
71042;SDS011;58696;52.134;5.500;2023-09-18T13:13:16;3.08;;;2.58;;
71042;SDS011;58696;52.134;5.500;2023-09-18T13:15:46;7.22;;;3.22;;
71042;SDS011;58696;52.134;5.500;2023-09-18T13:18:15;7.20;;;2.55;;
71042;SDS011;58696;52.134;5.500;2023-09-18T13:20:45;7.43;;;2.83;;
71042;SDS011;58696;52.134;5.500;2023-09-18T13:23:12;5.03;;;2.55;;
71042;SDS011;58696;52.134;5.500;2023-09-18T13:25:42;5.72;;;2.65;;
71042;SDS011;58696;52.134;5.500;2023-09-18T13:28:13;4.13;;;2.70;;
71042;SDS011;58696;52.134;5.500;2023-09-18T13:30:41;3.67;;;2.17;;
71042;SDS011;58696;52.134;5.500;2023-09-18T13:33:11;5.43;;;2.20;;
71042;SDS011;58696;52.134;5.500;2023-09-18T13:35:41;3.72;;;2.13;;
71042;SDS011;58696;52.134;5.500;2023-09-18T13:38:09;8.27;;;2.70;;
71042;SDS011;58696;52.134;5.500;2023-09-18T13:40:41;3.53;;;2.42;;
71042;SDS011;58696;52.134;5.500;2023-09-18T13:43:11;3.70;;;2.33;;
71042;SDS011;58696;52.134;5.500;2023-09-18T13:45:45;9.90;;;2.10;;
71042;SDS011;58696;52.134;5.500;2023-09-18T13:48:12;4.22;;;2.40;;
71042;SDS011;58696;52.134;5.500;2023-09-18T13:50:41;5.60;;;2.67;;
71042;SDS011;58696;52.134;5.500;2023-09-18T13:53:08;3.42;;;2.30;;
71042;SDS011;58696;52.134;5.500;2023-09-18T13:55:39;2.88;;;2.20;;
71042;SDS011;58696;52.134;5.500;2023-09-18T13:58:06;2.20;;;2.00;;
71042;SDS011;58696;52.134;5.500;2023-09-18T14:00:32;4.40;;;2.00;;
71042;SDS011;58696;52.134;5.500;2023-09-18T14:03:04;5.85;;;1.60;;
71042;SDS011;58696;52.134;5.500;2023-09-18T14:05:32;3.47;;;2.05;;
71042;SDS011;58696;52.134;5.500;2023-09-18T14:08:00;8.60;;;2.33;;
71042;SDS011;58696;52.134;5.500;2023-09-18T14:10:29;3.13;;;1.77;;
71042;SDS011;58696;52.134;5.500;2023-09-18T14:12:56;5.35;;;1.83;;
71042;SDS011;58696;52.134;5.500;2023-09-18T14:15:24;2.45;;;1.42;;
71042;SDS011;58696;52.134;5.500;2023-09-18T14:17:50;14.73;;;1.98;;
71042;SDS011;58696;52.134;5.500;2023-09-18T14:20:20;3.08;;;1.80;;
71042;SDS011;58696;52.134;5.500;2023-09-18T14:22:50;5.47;;;1.60;;
71042;SDS011;58696;52.134;5.500;2023-09-18T14:25:17;1.92;;;1.80;;
71042;SDS011;58696;52.134;5.500;2023-09-18T14:27:46;7.60;;;2.08;;
71042;SDS011;58696;52.134;5.500;2023-09-18T14:30:13;6.55;;;1.80;;
71042;SDS011;58696;52.134;5.500;2023-09-18T14:32:41;2.75;;;1.70;;
71042;SDS011;58696;52.134;5.500;2023-09-18T14:35:10;2.00;;;1.30;;
71042;SDS011;58696;52.134;5.500;2023-09-18T14:37:42;2.83;;;1.85;;
71042;SDS011;58696;52.134;5.500;2023-09-18T14:40:11;5.15;;;1.60;;
71042;SDS011;58696;52.134;5.500;2023-09-18T14:42:41;2.42;;;1.70;;
71042;SDS011;58696;52.134;5.500;2023-09-18T14:45:07;3.15;;;1.70;;
71042;SDS011;58696;52.134;5.500;2023-09-18T14:47:36;4.05;;;1.70;;
71042;SDS011;58696;52.134;5.500;2023-09-18T14:50:05;7.78;;;1.98;;
71042;SDS011;58696;52.134;5.500;2023-09-18T14:52:32;2.08;;;1.63;;
71042;SDS011;58696;52.134;5.500;2023-09-18T14:54:58;3.88;;;1.80;;
71042;SDS011;58696;52.134;5.500;2023-09-18T14:57:31;5.10;;;1.42;;
71042;SDS011;58696;52.134;5.500;2023-09-18T15:00:00;4.00;;;1.65;;
71042;SDS011;58696;52.134;5.500;2023-09-18T15:02:27;2.83;;;1.80;;
71042;SDS011;58696;52.134;5.500;2023-09-18T15:04:57;3.00;;;2.03;;
71042;SDS011;58696;52.134;5.500;2023-09-18T15:07:26;5.40;;;1.77;;
71042;SDS011;58696;52.134;5.500;2023-09-18T15:09:53;3.70;;;1.95;;
71042;SDS011;58696;52.134;5.500;2023-09-18T15:12:20;4.80;;;1.88;;